sensor_id;sensor_type;location;lat;lon;timestamp;P1;durP1;ratioP1;P2;durP2;ratioP2
22995;SDS011;11664;49.774;8.650;2024-03-17T00:00:03;4.20;;;3.83;;
22995;SDS011;11664;49.774;8.650;2024-03-17T00:05:25;4.35;;;3.95;;
22995;SDS011;11664;49.774;8.650;2024-03-17T00:07:54;7.35;;;6.03;;
22995;SDS011;11664;49.774;8.650;2024-03-17T00:10:19;12.73;;;7.35;;
22995;SDS011;11664;49.774;8.650;2024-03-17T00:12:48;9.18;;;7.95;;
22995;SDS011;11664;49.774;8.650;2024-03-17T00:15:21;9.82;;;7.00;;
22995;SDS011;11664;49.774;8.650;2024-03-17T00:17:47;8.32;;;6.15;;
22995;SDS011;11664;49.774;8.650;2024-03-17T00:20:13;6.88;;;5.60;;
22995;SDS011;11664;49.774;8.650;2024-03-17T00:22:45;5.78;;;4.85;;
22995;SDS011;11664;49.774;8.650;2024-03-17T00:25:24;4.90;;;3.92;;
22995;SDS011;11664;49.774;8.650;2024-03-17T00:27:49;4.82;;;4.43;;
22995;SDS011;11664;49.774;8.650;2024-03-17T00:30:21;5.50;;;5.20;;
22995;SDS011;11664;49.774;8.650;2024-03-17T00:32:47;5.73;;;5.13;;
22995;SDS011;11664;49.774;8.650;2024-03-17T00:35:12;5.60;;;5.13;;
22995;SDS011;11664;49.774;8.650;2024-03-17T00:37:48;7.40;;;6.90;;
22995;SDS011;11664;49.774;8.650;2024-03-17T00:40:23;5.38;;;5.07;;
22995;SDS011;11664;49.774;8.650;2024-03-17T00:46:16;6.75;;;6.40;;
22995;SDS011;11664;49.774;8.650;2024-03-17T00:48:47;5.22;;;4.72;;
22995;SDS011;11664;49.774;8.650;2024-03-17T00:51:23;5.15;;;4.80;;
22995;SDS011;11664;49.774;8.650;2024-03-17T00:53:48;5.50;;;5.15;;
22995;SDS011;11664;49.774;8.650;2024-03-17T00:56:14;3.65;;;3.45;;
22995;SDS011;11664;49.774;8.650;2024-03-17T00:58:43;4.03;;;3.78;;
22995;SDS011;11664;49.774;8.650;2024-03-17T01:01:10;3.70;;;3.50;;
22995;SDS011;11664;49.774;8.650;2024-03-17T01:03:42;3.58;;;3.25;;
22995;SDS011;11664;49.774;8.650;2024-03-17T01:06:10;3.75;;;3.45;;
22995;SDS011;11664;49.774;8.650;2024-03-17T01:08:39;4.17;;;3.87;;
22995;SDS011;11664;49.774;8.650;2024-03-17T01:11:07;3.72;;;3.30;;
22995;SDS011;11664;49.774;8.650;2024-03-17T01:13:34;4.85;;;4.60;;
22995;SDS011;11664;49.774;8.650;2024-03-17T01:16:02;4.75;;;4.45;;
22995;SDS011;11664;49.774;8.650;2024-03-17T01:18:33;4.57;;;4.37;;
22995;SDS011;11664;49.774;8.650;2024-03-17T01:21:02;5.72;;;5.32;;
22995;SDS011;11664;49.774;8.650;2024-03-17T01:23:31;3.55;;;3.42;;
22995;SDS011;11664;49.774;8.650;2024-03-17T01:25:56;3.47;;;3.28;;
22995;SDS011;11664;49.774;8.650;2024-03-17T01:28:25;3.70;;;3.50;;
22995;SDS011;11664;49.774;8.650;2024-03-17T01:30:52;4.10;;;3.70;;
22995;SDS011;11664;49.774;8.650;2024-03-17T01:33:23;3.22;;;3.03;;
22995;SDS011;11664;49.774;8.650;2024-03-17T01:35:54;3.40;;;3.20;;
22995;SDS011;11664;49.774;8.650;2024-03-17T01:38:20;4.53;;;4.20;;
22995;SDS011;11664;49.774;8.650;2024-03-17T01:40:46;3.75;;;3.55;;
22995;SDS011;11664;49.774;8.650;2024-03-17T01:43:15;4.35;;;3.95;;
22995;SDS011;11664;49.774;8.650;2024-03-17T01:45:41;3.83;;;3.15;;
22995;SDS011;11664;49.774;8.650;2024-03-17T01:48:08;6.85;;;6.35;;
22995;SDS011;11664;49.774;8.650;2024-03-17T01:50:48;6.97;;;6.57;;
22995;SDS011;11664;49.774;8.650;2024-03-17T01:53:17;6.00;;;5.70;;
22995;SDS011;11664;49.774;8.650;2024-03-17T01:55:43;5.85;;;5.55;;
22995;SDS011;11664;49.774;8.650;2024-03-17T01:58:10;4.80;;;4.60;;
22995;SDS011;11664;49.774;8.650;2024-03-17T02:00:45;4.60;;;4.20;;
22995;SDS011;11664;49.774;8.650;2024-03-17T02:03:13;4.05;;;3.85;;
22995;SDS011;11664;49.774;8.650;2024-03-17T02:05:39;6.78;;;6.47;;
22995;SDS011;11664;49.774;8.650;2024-03-17T02:08:05;6.63;;;6.22;;
22995;SDS011;11664;49.774;8.650;2024-03-17T02:10:34;6.30;;;5.93;;
22995;SDS011;11664;49.774;8.650;2024-03-17T02:13:00;6.43;;;5.07;;
22995;SDS011;11664;49.774;8.650;2024-03-17T02:15:28;5.72;;;5.32;;
22995;SDS011;11664;49.774;8.650;2024-03-17T02:17:53;6.00;;;5.50;;
22995;SDS011;11664;49.774;8.650;2024-03-17T02:20:23;4.82;;;4.53;;
22995;SDS011;11664;49.774;8.650;2024-03-17T02:23:07;3.47;;;3.28;;
22995;SDS011;11664;49.774;8.650;2024-03-17T02:25:33;3.83;;;3.63;;
22995;SDS011;11664;49.774;8.650;2024-03-17T02:27:58;4.50;;;4.22;;
22995;SDS011;11664;49.774;8.650;2024-03-17T02:30:27;3.85;;;3.55;;
22995;SDS011;11664;49.774;8.650;2024-03-17T02:33:12;3.72;;;3.53;;
22995;SDS011;11664;49.774;8.650;2024-03-17T02:35:43;3.75;;;3.55;;
22995;SDS011;11664;49.774;8.650;2024-03-17T02:38:15;5.18;;;4.72;;
22995;SDS011;11664;49.774;8.650;2024-03-17T02:41:01;6.10;;;5.70;;
22995;SDS011;11664;49.774;8.650;2024-03-17T02:43:26;5.38;;;5.07;;
22995;SDS011;11664;49.774;8.650;2024-03-17T02:45:55;3.38;;;3.17;;
22995;SDS011;11664;49.774;8.650;2024-03-17T02:48:21;3.10;;;3.00;;
22995;SDS011;11664;49.774;8.650;2024-03-17T02:50:47;2.85;;;2.75;;
22995;SDS011;11664;49.774;8.650;2024-03-17T02:53:16;3.17;;;2.90;;
22995;SDS011;11664;49.774;8.650;2024-03-17T02:55:50;3.33;;;3.13;;
22995;SDS011;11664;49.774;8.650;2024-03-17T02:58:16;3.30;;;3.10;;
22995;SDS011;11664;49.774;8.650;2024-03-17T03:00:44;4.38;;;4.07;;
22995;SDS011;11664;49.774;8.650;2024-03-17T03:03:10;5.93;;;5.63;;
22995;SDS011;11664;49.774;8.650;2024-03-17T03:05:41;5.97;;;5.68;;
22995;SDS011;11664;49.774;8.650;2024-03-17T03:08:13;7.10;;;6.70;;
22995;SDS011;11664;49.774;8.650;2024-03-17T03:10:43;5.45;;;5.13;;
22995;SDS011;11664;49.774;8.650;2024-03-17T03:13:10;7.18;;;6.75;;
22995;SDS011;11664;49.774;8.650;2024-03-17T03:15:59;8.32;;;7.93;;
22995;SDS011;11664;49.774;8.650;2024-03-17T03:18:25;5.28;;;4.88;;
22995;SDS011;11664;49.774;8.650;2024-03-17T03:20:56;4.60;;;4.38;;
22995;SDS011;11664;49.774;8.650;2024-03-17T03:23:25;3.97;;;3.63;;
22995;SDS011;11664;49.774;8.650;2024-03-17T03:25:58;6.65;;;6.25;;
22995;SDS011;11664;49.774;8.650;2024-03-17T03:28:25;8.77;;;8.25;;
22995;SDS011;11664;49.774;8.650;2024-03-17T03:30:51;3.90;;;3.60;;
22995;SDS011;11664;49.774;8.650;2024-03-17T03:33:18;3.60;;;3.30;;
22995;SDS011;11664;49.774;8.650;2024-03-17T03:35:44;3.97;;;3.63;;
22995;SDS011;11664;49.774;8.650;2024-03-17T03:38:22;5.68;;;5.43;;
22995;SDS011;11664;49.774;8.650;2024-03-17T03:40:51;4.55;;;4.13;;
22995;SDS011;11664;49.774;8.650;2024-03-17T03:43:20;4.05;;;3.85;;
22995;SDS011;11664;49.774;8.650;2024-03-17T03:45:52;3.17;;;2.97;;
22995;SDS011;11664;49.774;8.650;2024-03-17T03:48:23;3.75;;;3.47;;
22995;SDS011;11664;49.774;8.650;2024-03-17T03:50:49;3.42;;;3.22;;
22995;SDS011;11664;49.774;8.650;2024-03-17T03:53:15;3.50;;;3.30;;
22995;SDS011;11664;49.774;8.650;2024-03-17T03:55:40;3.60;;;3.40;;
22995;SDS011;11664;49.774;8.650;2024-03-17T03:58:06;3.60;;;3.35;;
22995;SDS011;11664;49.774;8.650;2024-03-17T04:00:38;3.80;;;3.50;;
22995;SDS011;11664;49.774;8.650;2024-03-17T04:03:10;4.57;;;4.38;;
22995;SDS011;11664;49.774;8.650;2024-03-17T04:05:42;4.50;;;4.30;;
22995;SDS011;11664;49.774;8.650;2024-03-17T04:08:08;4.40;;;2.95;;
22995;SDS011;11664;49.774;8.650;2024-03-17T04:10:39;3.75;;;3.55;;
22995;SDS011;11664;49.774;8.650;2024-03-17T04:13:08;3.80;;;3.60;;
22995;SDS011;11664;49.774;8.650;2024-03-17T04:15:40;4.85;;;4.50;;
22995;SDS011;11664;49.774;8.650;2024-03-17T04:18:05;3.30;;;3.20;;
22995;SDS011;11664;49.774;8.650;2024-03-17T04:20:31;5.10;;;4.80;;
22995;SDS011;11664;49.774;8.650;2024-03-17T04:22:56;6.13;;;5.55;;
22995;SDS011;11664;49.774;8.650;2024-03-17T04:25:23;6.18;;;5.88;;
22995;SDS011;11664;49.774;8.650;2024-03-17T04:28:04;3.88;;;3.67;;
22995;SDS011;11664;49.774;8.650;2024-03-17T04:30:29;2.92;;;2.72;;
22995;SDS011;11664;49.774;8.650;2024-03-17T04:32:56;4.00;;;3.80;;
22995;SDS011;11664;49.774;8.650;2024-03-17T04:35:21;3.30;;;3.10;;
22995;SDS011;11664;49.774;8.650;2024-03-17T04:37:53;7.05;;;6.63;;
22995;SDS011;11664;49.774;8.650;2024-03-17T04:40:22;4.30;;;4.10;;
22995;SDS011;11664;49.774;8.650;2024-03-17T04:42:50;9.57;;;9.02;;
22995;SDS011;11664;49.774;8.650;2024-03-17T04:45:19;5.93;;;5.63;;
22995;SDS011;11664;49.774;8.650;2024-03-17T04:47:45;3.53;;;3.33;;
22995;SDS011;11664;49.774;8.650;2024-03-17T04:50:18;5.03;;;4.80;;
22995;SDS011;11664;49.774;8.650;2024-03-17T04:52:50;3.40;;;3.20;;
22995;SDS011;11664;49.774;8.650;2024-03-17T04:55:16;6.43;;;5.78;;
22995;SDS011;11664;49.774;8.650;2024-03-17T04:57:45;4.43;;;4.13;;
22995;SDS011;11664;49.774;8.650;2024-03-17T05:00:13;3.63;;;3.42;;
22995;SDS011;11664;49.774;8.650;2024-03-17T05:02:40;3.15;;;2.97;;
22995;SDS011;11664;49.774;8.650;2024-03-17T05:05:25;4.93;;;3.65;;
22995;SDS011;11664;49.774;8.650;2024-03-17T05:07:50;3.67;;;3.47;;
22995;SDS011;11664;49.774;8.650;2024-03-17T05:10:24;5.03;;;3.75;;
22995;SDS011;11664;49.774;8.650;2024-03-17T05:12:50;5.38;;;5.07;;
22995;SDS011;11664;49.774;8.650;2024-03-17T05:15:22;5.28;;;4.85;;
22995;SDS011;11664;49.774;8.650;2024-03-17T05:17:50;4.32;;;4.13;;
22995;SDS011;11664;49.774;8.650;2024-03-17T05:20:16;3.90;;;3.70;;
22995;SDS011;11664;49.774;8.650;2024-03-17T05:22:44;4.35;;;4.15;;
22995;SDS011;11664;49.774;8.650;2024-03-17T05:25:12;4.93;;;3.70;;
22995;SDS011;11664;49.774;8.650;2024-03-17T05:27:38;4.30;;;4.10;;
22995;SDS011;11664;49.774;8.650;2024-03-17T05:30:04;5.18;;;4.93;;
22995;SDS011;11664;49.774;8.650;2024-03-17T05:32:33;4.95;;;4.75;;
22995;SDS011;11664;49.774;8.650;2024-03-17T05:34:59;3.40;;;3.20;;
22995;SDS011;11664;49.774;8.650;2024-03-17T05:37:24;6.40;;;3.53;;
22995;SDS011;11664;49.774;8.650;2024-03-17T05:39:50;5.15;;;4.85;;
22995;SDS011;11664;49.774;8.650;2024-03-17T05:42:22;4.20;;;4.00;;
22995;SDS011;11664;49.774;8.650;2024-03-17T05:44:54;5.57;;;5.28;;
22995;SDS011;11664;49.774;8.650;2024-03-17T05:47:20;4.65;;;4.35;;
22995;SDS011;11664;49.774;8.650;2024-03-17T05:49:45;4.78;;;4.57;;
22995;SDS011;11664;49.774;8.650;2024-03-17T05:52:14;4.80;;;4.40;;
22995;SDS011;11664;49.774;8.650;2024-03-17T05:54:39;4.28;;;3.97;;
22995;SDS011;11664;49.774;8.650;2024-03-17T05:57:05;3.95;;;3.75;;
22995;SDS011;11664;49.774;8.650;2024-03-17T05:59:32;3.30;;;3.10;;
22995;SDS011;11664;49.774;8.650;2024-03-17T06:01:57;6.35;;;4.45;;
22995;SDS011;11664;49.774;8.650;2024-03-17T06:04:23;11.18;;;7.43;;
22995;SDS011;11664;49.774;8.650;2024-03-17T06:06:51;7.65;;;5.55;;
22995;SDS011;11664;49.774;8.650;2024-03-17T06:09:16;8.45;;;6.15;;
22995;SDS011;11664;49.774;8.650;2024-03-17T06:11:45;10.50;;;7.13;;
22995;SDS011;11664;49.774;8.650;2024-03-17T06:14:11;13.35;;;5.45;;
22995;SDS011;11664;49.774;8.650;2024-03-17T06:16:38;11.15;;;6.18;;
22995;SDS011;11664;49.774;8.650;2024-03-17T06:19:09;12.27;;;5.03;;
22995;SDS011;11664;49.774;8.650;2024-03-17T06:21:37;15.55;;;7.97;;
22995;SDS011;11664;49.774;8.650;2024-03-17T06:24:03;12.68;;;8.25;;
22995;SDS011;11664;49.774;8.650;2024-03-17T06:26:31;5.25;;;4.35;;
22995;SDS011;11664;49.774;8.650;2024-03-17T06:29:21;4.97;;;4.57;;
22995;SDS011;11664;49.774;8.650;2024-03-17T06:31:47;8.93;;;8.35;;
22995;SDS011;11664;49.774;8.650;2024-03-17T06:34:14;5.50;;;5.10;;
22995;SDS011;11664;49.774;8.650;2024-03-17T06:36:40;6.25;;;5.65;;
22995;SDS011;11664;49.774;8.650;2024-03-17T06:39:07;6.03;;;5.03;;
22995;SDS011;11664;49.774;8.650;2024-03-17T06:41:32;5.50;;;5.00;;
22995;SDS011;11664;49.774;8.650;2024-03-17T06:43:58;5.68;;;4.57;;
22995;SDS011;11664;49.774;8.650;2024-03-17T06:46:30;4.75;;;4.35;;
22995;SDS011;11664;49.774;8.650;2024-03-17T06:49:02;5.45;;;4.95;;
22995;SDS011;11664;49.774;8.650;2024-03-17T06:51:39;5.20;;;3.78;;
22995;SDS011;11664;49.774;8.650;2024-03-17T06:54:05;5.55;;;4.90;;
22995;SDS011;11664;49.774;8.650;2024-03-17T06:56:37;5.78;;;5.28;;
22995;SDS011;11664;49.774;8.650;2024-03-17T06:59:05;4.30;;;3.63;;
22995;SDS011;11664;49.774;8.650;2024-03-17T07:01:34;5.97;;;5.57;;
22995;SDS011;11664;49.774;8.650;2024-03-17T07:04:05;5.95;;;5.55;;
22995;SDS011;11664;49.774;8.650;2024-03-17T07:06:31;5.45;;;5.10;;
22995;SDS011;11664;49.774;8.650;2024-03-17T07:09:06;5.50;;;5.00;;
22995;SDS011;11664;49.774;8.650;2024-03-17T07:11:40;5.97;;;5.57;;
22995;SDS011;11664;49.774;8.650;2024-03-17T07:14:06;5.38;;;4.97;;
22995;SDS011;11664;49.774;8.650;2024-03-17T07:16:37;5.60;;;5.20;;
22995;SDS011;11664;49.774;8.650;2024-03-17T07:19:03;4.53;;;4.22;;
22995;SDS011;11664;49.774;8.650;2024-03-17T07:21:32;3.92;;;3.65;;
22995;SDS011;11664;49.774;8.650;2024-03-17T07:23:58;5.00;;;4.70;;
22995;SDS011;11664;49.774;8.650;2024-03-17T07:26:30;4.90;;;4.60;;
22995;SDS011;11664;49.774;8.650;2024-03-17T07:28:56;6.97;;;4.82;;
22995;SDS011;11664;49.774;8.650;2024-03-17T07:31:28;4.03;;;3.78;;
22995;SDS011;11664;49.774;8.650;2024-03-17T07:33:53;7.00;;;4.53;;
22995;SDS011;11664;49.774;8.650;2024-03-17T07:36:19;4.88;;;4.47;;
22995;SDS011;11664;49.774;8.650;2024-03-17T07:38:53;4.78;;;4.38;;
22995;SDS011;11664;49.774;8.650;2024-03-17T07:41:21;5.00;;;4.60;;
22995;SDS011;11664;49.774;8.650;2024-03-17T07:43:55;5.03;;;4.55;;
22995;SDS011;11664;49.774;8.650;2024-03-17T07:46:20;3.92;;;3.72;;
22995;SDS011;11664;49.774;8.650;2024-03-17T07:48:49;3.88;;;3.58;;
22995;SDS011;11664;49.774;8.650;2024-03-17T07:51:15;7.63;;;3.85;;
22995;SDS011;11664;49.774;8.650;2024-03-17T07:53:48;4.68;;;4.38;;
22995;SDS011;11664;49.774;8.650;2024-03-17T07:56:19;5.20;;;4.85;;
22995;SDS011;11664;49.774;8.650;2024-03-17T07:58:45;5.13;;;4.72;;
22995;SDS011;11664;49.774;8.650;2024-03-17T08:01:14;4.93;;;4.63;;
22995;SDS011;11664;49.774;8.650;2024-03-17T08:03:41;3.75;;;3.55;;
22995;SDS011;11664;49.774;8.650;2024-03-17T08:06:10;6.10;;;5.80;;
22995;SDS011;11664;49.774;8.650;2024-03-17T08:08:41;5.35;;;4.82;;
22995;SDS011;11664;49.774;8.650;2024-03-17T08:11:10;5.95;;;5.65;;
22995;SDS011;11664;49.774;8.650;2024-03-17T08:13:35;2.90;;;2.80;;
22995;SDS011;11664;49.774;8.650;2024-03-17T08:16:06;3.30;;;3.10;;
22995;SDS011;11664;49.774;8.650;2024-03-17T08:18:36;3.00;;;2.80;;
22995;SDS011;11664;49.774;8.650;2024-03-17T08:21:02;3.92;;;3.30;;
22995;SDS011;11664;49.774;8.650;2024-03-17T08:23:29;3.60;;;3.35;;
22995;SDS011;11664;49.774;8.650;2024-03-17T08:25:56;3.92;;;3.38;;
22995;SDS011;11664;49.774;8.650;2024-03-17T08:28:25;2.67;;;2.58;;
22995;SDS011;11664;49.774;8.650;2024-03-17T08:30:59;3.15;;;2.95;;
22995;SDS011;11664;49.774;8.650;2024-03-17T08:33:25;3.40;;;2.95;;
22995;SDS011;11664;49.774;8.650;2024-03-17T08:35:52;3.35;;;3.15;;
22995;SDS011;11664;49.774;8.650;2024-03-17T08:38:34;3.17;;;2.97;;
22995;SDS011;11664;49.774;8.650;2024-03-17T08:41:12;3.10;;;2.80;;
22995;SDS011;11664;49.774;8.650;2024-03-17T08:43:38;3.92;;;3.53;;
22995;SDS011;11664;49.774;8.650;2024-03-17T08:46:09;3.13;;;2.75;;
22995;SDS011;11664;49.774;8.650;2024-03-17T08:48:41;3.92;;;3.67;;
22995;SDS011;11664;49.774;8.650;2024-03-17T08:51:08;3.38;;;3.10;;
22995;SDS011;11664;49.774;8.650;2024-03-17T08:53:34;5.63;;;3.70;;
22995;SDS011;11664;49.774;8.650;2024-03-17T08:56:12;3.40;;;3.20;;
22995;SDS011;11664;49.774;8.650;2024-03-17T08:58:38;4.43;;;3.95;;
22995;SDS011;11664;49.774;8.650;2024-03-17T09:01:04;4.35;;;3.25;;
22995;SDS011;11664;49.774;8.650;2024-03-17T09:03:37;9.30;;;3.83;;
22995;SDS011;11664;49.774;8.650;2024-03-17T09:08:54;3.05;;;2.85;;
22995;SDS011;11664;49.774;8.650;2024-03-17T09:11:26;3.13;;;2.72;;
22995;SDS011;11664;49.774;8.650;2024-03-17T09:13:53;4.13;;;2.90;;
22995;SDS011;11664;49.774;8.650;2024-03-17T09:16:22;3.17;;;2.97;;
22995;SDS011;11664;49.774;8.650;2024-03-17T09:18:49;3.38;;;3.17;;
22995;SDS011;11664;49.774;8.650;2024-03-17T09:21:14;3.15;;;2.95;;
22995;SDS011;11664;49.774;8.650;2024-03-17T09:23:44;3.10;;;2.97;;
22995;SDS011;11664;49.774;8.650;2024-03-17T09:26:10;2.88;;;2.78;;
22995;SDS011;11664;49.774;8.650;2024-03-17T09:28:41;2.83;;;2.67;;
22995;SDS011;11664;49.774;8.650;2024-03-17T09:31:12;4.18;;;2.80;;
22995;SDS011;11664;49.774;8.650;2024-03-17T09:33:41;3.88;;;3.58;;
22995;SDS011;11664;49.774;8.650;2024-03-17T09:36:07;4.25;;;3.95;;
22995;SDS011;11664;49.774;8.650;2024-03-17T09:38:36;4.07;;;3.75;;
22995;SDS011;11664;49.774;8.650;2024-03-17T09:41:02;3.83;;;3.63;;
22995;SDS011;11664;49.774;8.650;2024-03-17T09:43:28;4.05;;;3.75;;
22995;SDS011;11664;49.774;8.650;2024-03-17T09:45:58;3.95;;;3.75;;
22995;SDS011;11664;49.774;8.650;2024-03-17T09:48:27;5.32;;;5.03;;
22995;SDS011;11664;49.774;8.650;2024-03-17T09:50:54;5.47;;;5.07;;
22995;SDS011;11664;49.774;8.650;2024-03-17T09:53:31;5.07;;;4.00;;
22995;SDS011;11664;49.774;8.650;2024-03-17T09:55:59;3.63;;;3.33;;
22995;SDS011;11664;49.774;8.650;2024-03-17T09:58:39;5.32;;;5.00;;
22995;SDS011;11664;49.774;8.650;2024-03-17T10:01:04;7.68;;;7.20;;
22995;SDS011;11664;49.774;8.650;2024-03-17T10:06:14;7.03;;;6.65;;
22995;SDS011;11664;49.774;8.650;2024-03-17T10:08:45;9.65;;;9.13;;
22995;SDS011;11664;49.774;8.650;2024-03-17T10:11:13;10.32;;;9.73;;
22995;SDS011;11664;49.774;8.650;2024-03-17T10:14:00;13.27;;;12.32;;
22995;SDS011;11664;49.774;8.650;2024-03-17T10:16:33;12.48;;;11.75;;
22995;SDS011;11664;49.774;8.650;2024-03-17T10:19:23;12.70;;;11.93;;
22995;SDS011;11664;49.774;8.650;2024-03-17T10:22:00;9.23;;;8.65;;
22995;SDS011;11664;49.774;8.650;2024-03-17T10:24:26;20.08;;;18.83;;
22995;SDS011;11664;49.774;8.650;2024-03-17T10:27:02;7.13;;;6.65;;
22995;SDS011;11664;49.774;8.650;2024-03-17T10:32:04;10.20;;;9.60;;
22995;SDS011;11664;49.774;8.650;2024-03-17T10:34:37;6.68;;;6.18;;
22995;SDS011;11664;49.774;8.650;2024-03-17T10:37:13;9.23;;;8.70;;
22995;SDS011;11664;49.774;8.650;2024-03-17T10:39:54;8.70;;;8.13;;
22995;SDS011;11664;49.774;8.650;2024-03-17T10:42:27;5.82;;;5.53;;
22995;SDS011;11664;49.774;8.650;2024-03-17T10:45:00;5.35;;;4.75;;
22995;SDS011;11664;49.774;8.650;2024-03-17T10:47:26;4.28;;;3.92;;
22995;SDS011;11664;49.774;8.650;2024-03-17T10:49:58;5.85;;;3.53;;
22995;SDS011;11664;49.774;8.650;2024-03-17T10:52:28;3.92;;;3.63;;
22995;SDS011;11664;49.774;8.650;2024-03-17T10:55:00;3.57;;;3.27;;
22995;SDS011;11664;49.774;8.650;2024-03-17T11:00:16;5.13;;;3.47;;
22995;SDS011;11664;49.774;8.650;2024-03-17T11:02:44;3.17;;;2.97;;
22995;SDS011;11664;49.774;8.650;2024-03-17T11:05:26;3.92;;;3.63;;
22995;SDS011;11664;49.774;8.650;2024-03-17T11:07:59;3.20;;;3.00;;
22995;SDS011;11664;49.774;8.650;2024-03-17T11:10:30;3.75;;;3.47;;
22995;SDS011;11664;49.774;8.650;2024-03-17T11:12:59;4.10;;;3.70;;
22995;SDS011;11664;49.774;8.650;2024-03-17T11:21:00;6.90;;;3.95;;
22995;SDS011;11664;49.774;8.650;2024-03-17T11:23:33;3.95;;;3.65;;
22995;SDS011;11664;49.774;8.650;2024-03-17T11:26:03;3.70;;;3.40;;
22995;SDS011;11664;49.774;8.650;2024-03-17T11:34:01;6.97;;;6.53;;
22995;SDS011;11664;49.774;8.650;2024-03-17T11:41:46;3.55;;;3.25;;
22995;SDS011;11664;49.774;8.650;2024-03-17T11:44:25;5.90;;;5.50;;
22995;SDS011;11664;49.774;8.650;2024-03-17T11:47:01;7.70;;;4.93;;
22995;SDS011;11664;49.774;8.650;2024-03-17T11:49:52;3.90;;;3.60;;
22995;SDS011;11664;49.774;8.650;2024-03-17T11:52:18;4.70;;;4.30;;
22995;SDS011;11664;49.774;8.650;2024-03-17T11:54:48;11.30;;;10.60;;
22995;SDS011;11664;49.774;8.650;2024-03-17T11:57:26;22.15;;;20.83;;
22995;SDS011;11664;49.774;8.650;2024-03-17T11:59:55;16.70;;;15.70;;
22995;SDS011;11664;49.774;8.650;2024-03-17T12:02:23;11.30;;;10.60;;
22995;SDS011;11664;49.774;8.650;2024-03-17T12:05:01;11.00;;;7.82;;
22995;SDS011;11664;49.774;8.650;2024-03-17T12:07:27;17.23;;;16.25;;
22995;SDS011;11664;49.774;8.650;2024-03-17T12:09:56;11.35;;;10.65;;
22995;SDS011;11664;49.774;8.650;2024-03-17T12:12:30;5.57;;;5.25;;
22995;SDS011;11664;49.774;8.650;2024-03-17T12:15:19;5.07;;;4.22;;
22995;SDS011;11664;49.774;8.650;2024-03-17T12:17:46;4.57;;;4.18;;
22995;SDS011;11664;49.774;8.650;2024-03-17T12:20:18;5.25;;;4.70;;
22995;SDS011;11664;49.774;8.650;2024-03-17T12:22:44;9.15;;;8.38;;
22995;SDS011;11664;49.774;8.650;2024-03-17T12:25:30;9.70;;;8.95;;
22995;SDS011;11664;49.774;8.650;2024-03-17T12:27:55;12.10;;;11.25;;
22995;SDS011;11664;49.774;8.650;2024-03-17T12:30:23;8.18;;;7.70;;
22995;SDS011;11664;49.774;8.650;2024-03-17T12:33:08;9.85;;;9.15;;
22995;SDS011;11664;49.774;8.650;2024-03-17T12:35:36;10.88;;;9.98;;
22995;SDS011;11664;49.774;8.650;2024-03-17T12:38:19;4.88;;;4.32;;
22995;SDS011;11664;49.774;8.650;2024-03-17T12:40:46;4.70;;;4.30;;
22995;SDS011;11664;49.774;8.650;2024-03-17T12:43:18;5.55;;;4.22;;
22995;SDS011;11664;49.774;8.650;2024-03-17T12:45:43;6.53;;;6.00;;
22995;SDS011;11664;49.774;8.650;2024-03-17T12:48:13;8.40;;;7.80;;
22995;SDS011;11664;49.774;8.650;2024-03-17T12:50:46;4.20;;;3.90;;
22995;SDS011;11664;49.774;8.650;2024-03-17T12:53:15;5.03;;;4.63;;
22995;SDS011;11664;49.774;8.650;2024-03-17T12:55:52;6.22;;;5.20;;
22995;SDS011;11664;49.774;8.650;2024-03-17T12:58:37;4.57;;;4.18;;
22995;SDS011;11664;49.774;8.650;2024-03-17T13:01:36;6.88;;;4.55;;
22995;SDS011;11664;49.774;8.650;2024-03-17T13:07:08;4.20;;;3.63;;
22995;SDS011;11664;49.774;8.650;2024-03-17T13:09:35;4.18;;;3.58;;
22995;SDS011;11664;49.774;8.650;2024-03-17T13:12:16;4.70;;;4.00;;
22995;SDS011;11664;49.774;8.650;2024-03-17T13:14:44;4.55;;;3.60;;
22995;SDS011;11664;49.774;8.650;2024-03-17T13:17:14;3.92;;;3.63;;
22995;SDS011;11664;49.774;8.650;2024-03-17T13:19:46;4.10;;;3.70;;
22995;SDS011;11664;49.774;8.650;2024-03-17T13:22:15;4.07;;;3.75;;
22995;SDS011;11664;49.774;8.650;2024-03-17T13:24:43;5.32;;;4.82;;
22995;SDS011;11664;49.774;8.650;2024-03-17T13:27:09;4.25;;;3.85;;
22995;SDS011;11664;49.774;8.650;2024-03-17T13:29:37;5.43;;;4.93;;
22995;SDS011;11664;49.774;8.650;2024-03-17T13:32:09;6.68;;;6.07;;
22995;SDS011;11664;49.774;8.650;2024-03-17T13:34:35;7.00;;;6.22;;
22995;SDS011;11664;49.774;8.650;2024-03-17T13:37:01;6.15;;;5.63;;
22995;SDS011;11664;49.774;8.650;2024-03-17T13:39:29;4.80;;;4.40;;
22995;SDS011;11664;49.774;8.650;2024-03-17T13:41:58;7.22;;;3.72;;
22995;SDS011;11664;49.774;8.650;2024-03-17T13:44:31;4.45;;;4.05;;
22995;SDS011;11664;49.774;8.650;2024-03-17T13:47:00;4.95;;;4.50;;
22995;SDS011;11664;49.774;8.650;2024-03-17T13:49:32;5.55;;;4.35;;
22995;SDS011;11664;49.774;8.650;2024-03-17T13:51:58;5.00;;;4.50;;
22995;SDS011;11664;49.774;8.650;2024-03-17T13:54:24;4.28;;;3.88;;
22995;SDS011;11664;49.774;8.650;2024-03-17T13:56:49;4.75;;;4.40;;
22995;SDS011;11664;49.774;8.650;2024-03-17T13:59:15;7.47;;;6.93;;
22995;SDS011;11664;49.774;8.650;2024-03-17T14:01:42;4.55;;;4.15;;
22995;SDS011;11664;49.774;8.650;2024-03-17T14:04:15;6.20;;;4.85;;
22995;SDS011;11664;49.774;8.650;2024-03-17T14:06:45;4.63;;;4.22;;
22995;SDS011;11664;49.774;8.650;2024-03-17T14:09:16;4.60;;;3.65;;
22995;SDS011;11664;49.774;8.650;2024-03-17T14:11:54;4.53;;;4.05;;
22995;SDS011;11664;49.774;8.650;2024-03-17T14:14:22;4.25;;;3.85;;
22995;SDS011;11664;49.774;8.650;2024-03-17T14:16:54;5.15;;;3.65;;
22995;SDS011;11664;49.774;8.650;2024-03-17T14:19:26;5.97;;;3.35;;
22995;SDS011;11664;49.774;8.650;2024-03-17T14:21:57;3.78;;;3.47;;
22995;SDS011;11664;49.774;8.650;2024-03-17T14:24:29;3.60;;;3.30;;
22995;SDS011;11664;49.774;8.650;2024-03-17T14:26:55;3.90;;;3.60;;
22995;SDS011;11664;49.774;8.650;2024-03-17T14:29:26;6.53;;;4.47;;
22995;SDS011;11664;49.774;8.650;2024-03-17T14:31:52;4.05;;;3.67;;
22995;SDS011;11664;49.774;8.650;2024-03-17T14:37:36;11.40;;;4.60;;
22995;SDS011;11664;49.774;8.650;2024-03-17T14:40:02;4.45;;;4.03;;
22995;SDS011;11664;49.774;8.650;2024-03-17T14:42:31;4.65;;;4.25;;
22995;SDS011;11664;49.774;8.650;2024-03-17T14:44:57;4.40;;;4.00;;
22995;SDS011;11664;49.774;8.650;2024-03-17T14:47:33;4.50;;;4.10;;
22995;SDS011;11664;49.774;8.650;2024-03-17T14:49:58;3.75;;;3.53;;
22995;SDS011;11664;49.774;8.650;2024-03-17T14:52:36;4.60;;;4.20;;
22995;SDS011;11664;49.774;8.650;2024-03-17T14:55:02;3.88;;;3.60;;
22995;SDS011;11664;49.774;8.650;2024-03-17T14:57:40;6.00;;;5.50;;
22995;SDS011;11664;49.774;8.650;2024-03-17T15:00:15;5.07;;;4.60;;
22995;SDS011;11664;49.774;8.650;2024-03-17T15:02:50;4.80;;;4.40;;
22995;SDS011;11664;49.774;8.650;2024-03-17T15:05:17;5.90;;;5.50;;
22995;SDS011;11664;49.774;8.650;2024-03-17T15:07:53;9.70;;;9.02;;
22995;SDS011;11664;49.774;8.650;2024-03-17T15:10:22;13.23;;;12.15;;
22995;SDS011;11664;49.774;8.650;2024-03-17T15:12:48;12.95;;;11.63;;
22995;SDS011;11664;49.774;8.650;2024-03-17T15:15:14;20.88;;;19.63;;
22995;SDS011;11664;49.774;8.650;2024-03-17T15:17:40;30.65;;;28.90;;
22995;SDS011;11664;49.774;8.650;2024-03-17T15:20:12;13.32;;;12.38;;
22995;SDS011;11664;49.774;8.650;2024-03-17T15:22:41;4.82;;;4.32;;
22995;SDS011;11664;49.774;8.650;2024-03-17T15:25:14;4.25;;;3.95;;
22995;SDS011;11664;49.774;8.650;2024-03-17T15:27:47;3.85;;;3.55;;
22995;SDS011;11664;49.774;8.650;2024-03-17T15:30:20;5.05;;;4.38;;
22995;SDS011;11664;49.774;8.650;2024-03-17T15:32:59;6.00;;;5.60;;
22995;SDS011;11664;49.774;8.650;2024-03-17T15:35:25;5.85;;;5.45;;
22995;SDS011;11664;49.774;8.650;2024-03-17T15:37:58;4.00;;;3.70;;
22995;SDS011;11664;49.774;8.650;2024-03-17T15:40:23;3.78;;;3.22;;